createdAt,value
2022-08-07T00:02:36.551Z,4.00
2022-08-07T00:05:28.968Z,3.97
2022-08-07T00:08:16.574Z,3.70
2022-08-07T00:11:07.494Z,3.63
2022-08-07T00:13:57.774Z,4.30
2022-08-07T00:16:46.451Z,4.07
2022-08-07T00:19:59.786Z,3.60
2022-08-07T00:22:42.321Z,3.67
2022-08-07T00:25:41.491Z,4.10
2022-08-07T00:28:33.658Z,3.83
2022-08-07T00:31:21.352Z,4.17
2022-08-07T00:34:08.953Z,4.87
2022-08-07T00:36:56.686Z,4.73
2022-08-07T00:39:45.039Z,4.80
2022-08-07T00:42:33.592Z,5.20
2022-08-07T00:45:23.701Z,4.60
2022-08-07T00:48:11.889Z,5.50
2022-08-07T00:51:00.387Z,5.20
2022-08-07T00:53:50.615Z,5.80
2022-08-07T00:56:42.414Z,5.47
2022-08-07T00:59:35.712Z,5.20
2022-08-07T01:02:28.527Z,5.20
2022-08-07T01:05:19.458Z,5.50
2022-08-07T01:08:08.957Z,4.53
2022-08-07T01:10:56.717Z,5.50
2022-08-07T01:13:56.087Z,5.93
2022-08-07T01:16:47.319Z,4.93
2022-08-07T01:19:38.496Z,5.23
2022-08-07T01:22:29.508Z,5.97
2022-08-07T01:25:40.399Z,5.87
2022-08-07T01:28:24.310Z,5.63
2022-08-07T01:31:15.490Z,5.60
2022-08-07T01:34:08.278Z,6.10
2022-08-07T01:36:57.942Z,5.43
2022-08-07T01:39:47.094Z,5.70
2022-08-07T01:42:40.249Z,5.73
2022-08-07T01:45:43.680Z,5.80
2022-08-07T01:48:34.163Z,5.20
2022-08-07T01:52:00.932Z,5.53
2022-08-07T01:54:36.498Z,5.53
2022-08-07T01:57:28.818Z,5.80
2022-08-07T02:00:17.778Z,5.50
2022-08-07T02:03:15.952Z,6.53
2022-08-07T02:06:31.614Z,6.00
2022-08-07T02:09:33.916Z,5.80
2022-08-07T02:12:32.902Z,5.87
2022-08-07T02:15:25.416Z,5.40
2022-08-07T02:18:15.762Z,5.83
2022-08-07T02:21:08.299Z,6.50
2022-08-07T02:24:04.498Z,5.43
2022-08-07T02:26:52.814Z,6.57
2022-08-07T02:29:43.589Z,5.90
2022-08-07T02:32:39.502Z,5.90
2022-08-07T02:36:29.499Z,6.33
2022-08-07T02:38:57.278Z,5.97
2022-08-07T02:41:47.254Z,5.70
2022-08-07T02:44:42.279Z,6.03
2022-08-07T02:47:45.234Z,5.93
2022-08-07T02:50:42.671Z,6.30
2022-08-07T02:53:38.704Z,5.93
2022-08-07T02:56:31.342Z,6.00
2022-08-07T02:59:24.156Z,5.50
2022-08-07T03:02:15.262Z,6.10
2022-08-07T03:05:04.895Z,6.47
2022-08-07T03:08:07.657Z,6.37
2022-08-07T03:10:58.230Z,6.10
2022-08-07T03:13:49.910Z,6.03
2022-08-07T03:16:38.380Z,5.70
2022-08-07T03:19:28.943Z,6.07
2022-08-07T03:22:18.860Z,6.40
2022-08-07T03:25:06.522Z,5.80
2022-08-07T03:27:59.210Z,6.00
2022-08-07T03:31:17.417Z,6.67
2022-08-07T03:34:07.981Z,5.80
2022-08-07T03:36:57.194Z,5.50
2022-08-07T03:40:13.203Z,6.03
2022-08-07T03:42:55.677Z,5.30
2022-08-07T03:45:47.872Z,6.07
2022-08-07T03:48:45.445Z,6.00
2022-08-07T03:51:47.859Z,5.93
2022-08-07T03:54:55.268Z,6.53
2022-08-07T03:58:34.994Z,6.67
2022-08-07T04:00:58.240Z,6.90
2022-08-07T04:03:53.598Z,7.10
2022-08-07T04:06:43.729Z,6.50
2022-08-07T04:09:45.465Z,6.57
2022-08-07T04:12:38.273Z,6.77
2022-08-07T04:15:25.422Z,6.80
2022-08-07T04:18:58.421Z,6.67
2022-08-07T04:21:21.811Z,6.90
2022-08-07T04:24:30.705Z,7.83
2022-08-07T04:27:35.950Z,6.67
2022-08-07T04:30:39.507Z,6.63
2022-08-07T04:33:36.242Z,6.43
2022-08-07T04:36:26.220Z,6.77
2022-08-07T04:39:13.650Z,6.83
2022-08-07T04:42:05.144Z,7.00
2022-08-07T04:45:02.703Z,6.83
2022-08-07T04:48:10.454Z,6.60
2022-08-07T04:51:16.166Z,6.63
2022-08-07T04:54:32.286Z,6.53
2022-08-07T04:58:15.111Z,7.40
2022-08-07T05:00:59.220Z,6.77
2022-08-07T05:04:24.849Z,6.67
2022-08-07T05:07:30.484Z,7.20
2022-08-07T05:10:37.604Z,7.53
2022-08-07T05:14:56.174Z,6.93
2022-08-07T05:16:52.749Z,6.73
2022-08-07T05:19:47.177Z,7.50
2022-08-07T05:22:36.275Z,8.30
2022-08-07T05:25:36.719Z,7.43
2022-08-07T05:28:36.662Z,7.30
2022-08-07T05:31:38.853Z,7.57
2022-08-07T05:34:28.410Z,7.90
2022-08-07T05:37:25.138Z,8.67
2022-08-07T05:40:18.710Z,7.50
2022-08-07T05:43:10.681Z,7.47
2022-08-07T05:46:01.237Z,9.00
2022-08-07T05:48:59.416Z,8.97
2022-08-07T05:51:47.984Z,8.60
2022-08-07T05:54:53.738Z,8.77
2022-08-07T05:57:44.958Z,9.80
2022-08-07T06:00:35.143Z,8.77
2022-08-07T06:03:24.053Z,8.30
2022-08-07T06:06:12.822Z,8.80
2022-08-07T06:09:06.613Z,8.20
2022-08-07T06:11:55.867Z,9.40
2022-08-07T06:14:49.535Z,8.43
2022-08-07T06:17:38.014Z,8.63
2022-08-07T06:20:49.780Z,8.60
2022-08-07T06:24:37.130Z,8.43
2022-08-07T06:26:42.434Z,8.50
2022-08-07T06:29:30.875Z,8.57
2022-08-07T06:32:18.036Z,7.67
2022-08-07T06:35:17.580Z,7.53
2022-08-07T06:38:06.273Z,7.23
2022-08-07T06:40:59.421Z,7.37
2022-08-07T06:43:59.542Z,8.27
2022-08-07T06:47:00.062Z,8.00
2022-08-07T06:49:58.694Z,7.57
2022-08-07T06:52:53.185Z,7.97
2022-08-07T06:56:00.032Z,8.00
2022-08-07T07:00:13.310Z,8.53
2022-08-07T07:01:58.803Z,7.40
2022-08-07T07:04:54.924Z,7.73
2022-08-07T07:07:59.243Z,6.63
2022-08-07T07:10:56.673Z,6.10
2022-08-07T07:13:57.641Z,6.43
2022-08-07T07:16:53.453Z,6.70
2022-08-07T07:19:57.052Z,6.10
2022-08-07T07:24:08.378Z,6.50
2022-08-07T07:26:32.361Z,5.87
2022-08-07T07:29:56.761Z,6.43
2022-08-07T07:32:25.642Z,5.90
2022-08-07T07:35:14.603Z,6.20
2022-08-07T07:38:04.800Z,7.13
2022-08-07T07:41:02.369Z,6.60
2022-08-07T07:44:16.726Z,6.37
2022-08-07T07:47:14.014Z,6.90
2022-08-07T07:50:34.647Z,6.47
2022-08-07T07:53:13.631Z,6.67
2022-08-07T07:56:12.663Z,5.67
2022-08-07T07:59:06.032Z,5.90
2022-08-07T08:02:01.635Z,5.43
2022-08-07T08:04:53.581Z,5.80
2022-08-07T08:07:59.717Z,5.43
2022-08-07T08:10:49.289Z,5.10
2022-08-07T08:13:54.996Z,5.40
2022-08-07T08:16:50.404Z,4.47
2022-08-07T08:20:18.311Z,4.50
2022-08-07T08:23:08.341Z,4.73
2022-08-07T08:26:18.761Z,4.37
2022-08-07T08:29:09.426Z,3.73
2022-08-07T08:31:58.777Z,3.97
2022-08-07T08:35:06.239Z,3.70
2022-08-07T08:42:09.244Z,2.73
2022-08-07T08:59:08.656Z,2.07
2022-08-07T09:02:24.736Z,2.30
2022-08-07T09:05:55.842Z,2.20
2022-08-07T09:09:09.712Z,2.00
2022-08-07T09:12:31.094Z,1.40
2022-08-07T09:16:22.942Z,1.33
2022-08-07T09:19:53.690Z,1.03
2022-08-07T09:24:33.530Z,1.10
2022-08-07T09:26:28.652Z,1.27
2022-08-07T09:30:04.270Z,1.37
2022-08-07T09:33:05.533Z,1.70
2022-08-07T09:36:22.887Z,1.60
2022-08-07T09:39:55.559Z,1.50
2022-08-07T09:42:58.726Z,1.50
2022-08-07T09:47:42.329Z,1.20
2022-08-07T09:50:01.995Z,1.30
2022-08-07T09:52:59.543Z,1.30
2022-08-07T09:56:42.093Z,1.30
2022-08-07T10:00:00.613Z,1.20
2022-08-07T10:04:05.371Z,1.58
2022-08-07T10:06:49.100Z,1.38
2022-08-07T10:09:59.264Z,1.70
2022-08-07T10:12:53.605Z,1.48
2022-08-07T10:16:10.015Z,1.63
2022-08-07T10:19:31.374Z,1.70
2022-08-07T10:23:02.225Z,1.50
2022-08-07T10:26:17.751Z,1.75
2022-08-07T10:29:51.561Z,1.55
2022-08-07T10:32:59.626Z,1.77
2022-08-07T10:36:05.581Z,1.60
2022-08-07T10:39:41.518Z,1.75
2022-08-07T10:42:54.603Z,1.63
2022-08-07T10:45:58.324Z,1.30
2022-08-07T10:49:15.002Z,1.50
2022-08-07T10:52:33.671Z,1.70
2022-08-07T10:55:37.783Z,1.33
2022-08-07T10:59:00.137Z,1.45
2022-08-07T11:02:04.800Z,1.38
2022-08-07T11:05:14.025Z,1.73
2022-08-07T11:08:11.843Z,1.60
2022-08-07T11:11:06.476Z,1.52
2022-08-07T11:14:43.411Z,1.30
2022-08-07T11:17:43.112Z,1.40
2022-08-07T11:21:14.201Z,1.80
2022-08-07T11:24:12.143Z,1.58
2022-08-07T11:27:17.777Z,1.58
2022-08-07T11:30:18.218Z,1.50
2022-08-07T11:33:53.831Z,1.35
2022-08-07T11:36:31.290Z,1.50
2022-08-07T11:39:59.109Z,1.40
2022-08-07T11:43:18.619Z,1.30
2022-08-07T11:46:57.245Z,1.45
2022-08-07T11:50:31.263Z,1.50
2022-08-07T11:53:27.735Z,1.40
2022-08-07T11:56:32.910Z,1.55
2022-08-07T12:00:11.913Z,1.42
2022-08-07T12:03:44.541Z,1.35
2022-08-07T12:06:37.378Z,1.50
2022-08-07T12:09:54.119Z,1.20
2022-08-07T12:12:49.543Z,1.33
2022-08-07T12:16:05.453Z,1.65
2022-08-07T12:19:21.627Z,1.20
2022-08-07T12:22:37.934Z,1.42
2022-08-07T12:26:03.200Z,1.45
2022-08-07T12:29:06.868Z,1.50
2022-08-07T12:32:04.974Z,1.40
2022-08-07T12:34:56.587Z,1.48
2022-08-07T12:38:11.205Z,1.40
2022-08-07T12:40:57.547Z,1.40
2022-08-07T12:44:02.704Z,1.48
2022-08-07T12:47:30.396Z,1.50
2022-08-07T12:50:39.510Z,1.60
2022-08-07T12:54:03.370Z,1.55
2022-08-07T12:57:09.455Z,1.45
2022-08-07T13:00:02.286Z,1.52
2022-08-07T13:03:22.992Z,1.50
2022-08-07T13:07:00.500Z,1.60
2022-08-07T13:10:37.664Z,1.50
2022-08-07T13:13:49.196Z,1.70
2022-08-07T13:17:02.659Z,1.50
2022-08-07T13:20:01.263Z,1.48
2022-08-07T13:22:55.972Z,1.52
2022-08-07T13:26:00.781Z,1.40
2022-08-07T13:29:13.085Z,1.80
2022-08-07T13:32:31.845Z,1.80
2022-08-07T13:36:00.483Z,1.63
2022-08-07T13:39:49.049Z,1.60
2022-08-07T13:42:41.492Z,1.70
2022-08-07T13:46:21.233Z,1.88
2022-08-07T13:48:51.909Z,1.85
2022-08-07T13:52:22.843Z,1.80
2022-08-07T13:55:00.656Z,1.63
2022-08-07T13:58:01.708Z,1.50
2022-08-07T14:01:50.996Z,1.80
2022-08-07T14:04:56.907Z,1.60
2022-08-07T14:08:00.085Z,1.77
2022-08-07T14:11:01.870Z,1.60
2022-08-07T14:14:08.186Z,1.80
2022-08-07T14:16:59.984Z,1.80
2022-08-07T14:20:42.032Z,1.70
2022-08-07T14:23:31.481Z,1.77
2022-08-07T14:26:56.896Z,1.63
2022-08-07T14:30:10.247Z,1.80
2022-08-07T14:33:00.165Z,1.70
2022-08-07T14:35:47.971Z,1.80
2022-08-07T14:38:36.073Z,1.67
2022-08-07T14:41:33.856Z,1.90
2022-08-07T14:44:40.609Z,1.58
2022-08-07T14:47:33.346Z,1.50
2022-08-07T14:50:24.478Z,1.77
2022-08-07T14:53:13.838Z,1.80
2022-08-07T14:56:13.115Z,1.67
2022-08-07T15:00:04.723Z,1.58
2022-08-07T15:02:32.170Z,1.90
2022-08-07T15:05:23.761Z,1.58
2022-08-07T15:08:14.001Z,1.67
2022-08-07T15:11:14.986Z,1.85
2022-08-07T15:17:17.244Z,1.85
2022-08-07T15:20:31.118Z,1.70
2022-08-07T15:26:44.720Z,1.75
2022-08-07T15:30:10.103Z,2.17
2022-08-07T15:33:03.806Z,1.40
2022-08-07T15:36:01.506Z,1.88
2022-08-07T15:42:45.731Z,1.70
2022-08-07T15:45:25.130Z,1.63
2022-08-07T15:48:37.004Z,1.60
2022-08-07T15:55:02.346Z,1.73
2022-08-07T15:58:00.270Z,1.90
2022-08-07T16:00:50.089Z,1.75
2022-08-07T16:03:55.511Z,1.70
2022-08-07T16:06:55.591Z,1.83
2022-08-07T16:10:27.873Z,1.52
2022-08-07T16:13:58.099Z,1.60
2022-08-07T16:17:03.145Z,1.85
2022-08-07T16:20:33.329Z,1.70
2022-08-07T16:23:55.050Z,1.92
2022-08-07T16:27:18.259Z,1.48
2022-08-07T16:30:30.723Z,1.42
2022-08-07T16:34:01.436Z,1.60
2022-08-07T16:38:02.929Z,1.70
2022-08-07T16:40:28.272Z,1.35
2022-08-07T16:44:02.652Z,1.65
2022-08-07T16:47:49.602Z,1.67
2022-08-07T16:50:48.139Z,1.75
2022-08-07T16:54:12.185Z,1.63
2022-08-07T16:57:06.287Z,1.80
2022-08-07T17:00:12.079Z,1.80
2022-08-07T17:03:17.481Z,2.17
2022-08-07T17:06:31.049Z,2.10
2022-08-07T17:10:06.913Z,1.73
2022-08-07T17:13:23.359Z,1.73
2022-08-07T17:16:11.157Z,2.10
2022-08-07T17:19:03.961Z,2.05
2022-08-07T17:21:58.998Z,2.10
2022-08-07T17:24:58.154Z,2.10
2022-08-07T17:28:00.659Z,1.67
2022-08-07T17:31:16.703Z,2.00
2022-08-07T17:34:33.266Z,2.05
2022-08-07T17:38:05.788Z,1.70
2022-08-07T17:40:58.954Z,2.00
2022-08-07T17:44:34.074Z,1.80
2022-08-07T17:47:41.747Z,1.88
2022-08-07T17:50:49.111Z,1.90
2022-08-07T17:54:00.208Z,2.10
2022-08-07T17:57:01.470Z,1.80
2022-08-07T17:59:54.986Z,2.10
2022-08-07T18:03:09.134Z,2.10
2022-08-07T18:06:06.674Z,2.03
2022-08-07T18:09:05.834Z,2.07
2022-08-07T18:12:27.923Z,1.90
2022-08-07T18:15:51.805Z,2.23
2022-08-07T18:21:10.311Z,1.73
2022-08-07T18:22:11.483Z,2.00
2022-08-07T18:25:19.260Z,2.03
2022-08-07T18:28:58.160Z,2.00
2022-08-07T18:31:51.433Z,2.00
2022-08-07T18:35:03.055Z,1.97
2022-08-07T18:38:58.643Z,2.37
2022-08-07T18:41:24.505Z,2.13
2022-08-07T18:45:43.304Z,1.97
2022-08-07T18:49:23.698Z,2.17
2022-08-07T18:52:34.343Z,2.00
2022-08-07T18:55:42.437Z,1.93
2022-08-07T18:58:51.655Z,1.93
2022-08-07T19:02:34.486Z,1.90
2022-08-07T19:06:01.910Z,2.17
2022-08-07T19:08:58.590Z,2.07
2022-08-07T19:12:11.390Z,2.00
2022-08-07T19:16:03.792Z,1.80
2022-08-07T19:18:35.905Z,2.20
2022-08-07T19:21:56.876Z,2.00
2022-08-07T19:24:53.042Z,2.07
2022-08-07T19:30:54.654Z,2.20
2022-08-07T19:31:41.480Z,1.83
2022-08-07T19:34:03.191Z,1.87
2022-08-07T19:36:53.523Z,2.13
2022-08-07T19:39:57.603Z,2.00
2022-08-07T19:42:49.703Z,2.20
2022-08-07T19:46:05.820Z,1.90
2022-08-07T19:48:56.034Z,2.00
2022-08-07T19:58:13.976Z,1.73
2022-08-07T20:01:09.677Z,2.13
2022-08-07T20:04:31.623Z,2.07
2022-08-07T20:07:14.226Z,2.50
2022-08-07T20:10:35.919Z,2.40
2022-08-07T20:13:38.094Z,2.50
2022-08-07T20:16:36.459Z,2.30
2022-08-07T20:19:28.885Z,2.57
2022-08-07T20:22:40.091Z,2.33
2022-08-07T20:25:32.007Z,2.20
2022-08-07T20:28:30.913Z,2.23
2022-08-07T20:31:21.151Z,2.50
2022-08-07T20:34:09.932Z,2.20
2022-08-07T20:36:58.678Z,2.20
2022-08-07T20:40:02.597Z,2.63
2022-08-07T20:42:56.689Z,2.63
2022-08-07T20:46:29.775Z,2.50
2022-08-07T20:49:58.915Z,2.70
2022-08-07T20:52:17.240Z,2.80
2022-08-07T20:55:08.698Z,2.40
2022-08-07T20:58:03.491Z,2.70
2022-08-07T21:01:03.467Z,2.70
2022-08-07T21:04:13.367Z,2.60
2022-08-07T21:07:04.473Z,2.60
2022-08-07T21:10:03.475Z,2.50
2022-08-07T21:12:54.921Z,2.20
2022-08-07T21:15:47.721Z,2.37
2022-08-07T21:18:50.422Z,2.23
2022-08-07T21:21:56.709Z,2.50
2022-08-07T21:25:11.727Z,3.07
2022-08-07T21:28:47.722Z,3.13
2022-08-07T21:32:03.700Z,2.77
2022-08-07T21:34:59.257Z,2.87
2022-08-07T21:38:00.321Z,3.40
2022-08-07T21:41:26.362Z,3.10
2022-08-07T21:44:28.421Z,3.37
2022-08-07T21:47:26.136Z,3.00
2022-08-07T21:50:24.518Z,3.20
2022-08-07T21:53:32.471Z,3.33
2022-08-07T21:56:36.407Z,3.07
2022-08-07T22:00:06.141Z,3.20
2022-08-07T22:03:09.836Z,2.60
2022-08-07T22:06:30.425Z,3.27
2022-08-07T22:09:28.189Z,3.93
2022-08-07T22:12:38.455Z,3.43
2022-08-07T22:16:39.067Z,3.47
2022-08-07T22:19:08.471Z,3.40
2022-08-07T22:22:21.086Z,3.93
2022-08-07T22:25:42.841Z,3.47
2022-08-07T22:29:08.922Z,3.67
2022-08-07T22:32:08.921Z,3.80
2022-08-07T22:35:05.009Z,3.87
2022-08-07T22:38:24.187Z,4.00
2022-08-07T22:41:22.317Z,4.27
2022-08-07T22:44:34.476Z,4.00
2022-08-07T22:47:35.516Z,3.93
2022-08-07T22:51:01.692Z,4.07
2022-08-07T22:54:12.173Z,3.57
2022-08-07T22:57:26.195Z,4.07
2022-08-07T23:00:18.984Z,4.27
2022-08-07T23:03:58.592Z,4.20
2022-08-07T23:07:02.766Z,4.63
2022-08-07T23:10:38.374Z,4.10
2022-08-07T23:14:16.018Z,4.60
2022-08-07T23:17:03.970Z,4.27
2022-08-07T23:20:40.403Z,4.20
2022-08-07T23:24:06.356Z,4.57
2022-08-07T23:27:34.564Z,4.53
2022-08-07T23:30:37.498Z,4.50
2022-08-07T23:34:36.244Z,4.87
2022-08-07T23:38:00.896Z,4.60
2022-08-07T23:40:56.614Z,4.23
2022-08-07T23:44:41.434Z,4.20
2022-08-07T23:47:47.811Z,4.70
2022-08-07T23:50:57.734Z,5.00
2022-08-07T23:54:44.096Z,5.20
2022-08-07T23:57:41.663Z,5.50
